sensor_id;sensor_type;location;lat;lon;timestamp;temperature;humidity
18454;DHT22;9356;52.202;20.950;2024-01-30T00:00:10;1.70;99.90
18454;DHT22;9356;52.202;20.950;2024-01-30T00:01:19;1.70;99.90
18454;DHT22;9356;52.202;20.950;2024-01-30T00:02:26;1.70;99.90
18454;DHT22;9356;52.202;20.950;2024-01-30T00:03:43;1.70;99.90
18454;DHT22;9356;52.202;20.950;2024-01-30T00:04:48;1.70;99.90
18454;DHT22;9356;52.202;20.950;2024-01-30T00:05:53;1.70;99.90
18454;DHT22;9356;52.202;20.950;2024-01-30T00:07:01;1.80;99.90
18454;DHT22;9356;52.202;20.950;2024-01-30T00:08:09;1.70;99.90
18454;DHT22;9356;52.202;20.950;2024-01-30T00:09:21;1.70;99.90
18454;DHT22;9356;52.202;20.950;2024-01-30T00:10:29;1.70;99.90
18454;DHT22;9356;52.202;20.950;2024-01-30T00:11:40;1.70;99.90
18454;DHT22;9356;52.202;20.950;2024-01-30T00:12:45;1.70;99.90
18454;DHT22;9356;52.202;20.950;2024-01-30T00:13:54;1.70;99.90
18454;DHT22;9356;52.202;20.950;2024-01-30T00:15:00;1.80;99.90
18454;DHT22;9356;52.202;20.950;2024-01-30T00:16:19;1.80;99.90
18454;DHT22;9356;52.202;20.950;2024-01-30T00:17:22;1.80;99.90
18454;DHT22;9356;52.202;20.950;2024-01-30T00:18:28;1.80;99.90
18454;DHT22;9356;52.202;20.950;2024-01-30T00:19:32;1.80;99.90
18454;DHT22;9356;52.202;20.950;2024-01-30T00:20:36;1.80;99.90
18454;DHT22;9356;52.202;20.950;2024-01-30T00:21:45;1.90;99.90
18454;DHT22;9356;52.202;20.950;2024-01-30T00:22:56;2.00;99.90
18454;DHT22;9356;52.202;20.950;2024-01-30T00:24:04;1.90;99.90
18454;DHT22;9356;52.202;20.950;2024-01-30T00:25:13;1.90;99.90
18454;DHT22;9356;52.202;20.950;2024-01-30T00:26:21;1.90;99.90
18454;DHT22;9356;52.202;20.950;2024-01-30T00:27:29;1.90;99.90
18454;DHT22;9356;52.202;20.950;2024-01-30T00:28:37;1.90;99.90
18454;DHT22;9356;52.202;20.950;2024-01-30T00:29:45;1.80;99.90
18454;DHT22;9356;52.202;20.950;2024-01-30T00:30:53;1.90;99.90
18454;DHT22;9356;52.202;20.950;2024-01-30T00:32:05;1.80;99.90
18454;DHT22;9356;52.202;20.950;2024-01-30T00:33:13;1.80;99.90
18454;DHT22;9356;52.202;20.950;2024-01-30T00:34:20;1.80;99.90
18454;DHT22;9356;52.202;20.950;2024-01-30T00:35:25;1.90;99.90
18454;DHT22;9356;52.202;20.950;2024-01-30T00:36:44;1.90;99.90
18454;DHT22;9356;52.202;20.950;2024-01-30T00:37:46;1.80;99.90
18454;DHT22;9356;52.202;20.950;2024-01-30T00:38:52;1.80;99.90
18454;DHT22;9356;52.202;20.950;2024-01-30T00:39:59;1.80;99.90
18454;DHT22;9356;52.202;20.950;2024-01-30T00:41:09;1.50;99.90
18454;DHT22;9356;52.202;20.950;2024-01-30T00:42:17;2.00;99.90
18454;DHT22;9356;52.202;20.950;2024-01-30T00:43:22;1.90;99.90
18454;DHT22;9356;52.202;20.950;2024-01-30T00:44:37;1.80;99.90
18454;DHT22;9356;52.202;20.950;2024-01-30T00:45:54;1.50;99.90
18454;DHT22;9356;52.202;20.950;2024-01-30T00:47:12;1.80;99.90
18454;DHT22;9356;52.202;20.950;2024-01-30T00:48:17;1.70;99.90
18454;DHT22;9356;52.202;20.950;2024-01-30T00:49:29;2.00;99.90
18454;DHT22;9356;52.202;20.950;2024-01-30T00:50:38;1.70;99.90
18454;DHT22;9356;52.202;20.950;2024-01-30T00:51:42;1.80;99.90
18454;DHT22;9356;52.202;20.950;2024-01-30T00:52:48;1.80;99.90
18454;DHT22;9356;52.202;20.950;2024-01-30T00:53:57;1.80;99.90
18454;DHT22;9356;52.202;20.950;2024-01-30T00:55:08;1.80;99.90
18454;DHT22;9356;52.202;20.950;2024-01-30T00:56:18;1.80;99.90
18454;DHT22;9356;52.202;20.950;2024-01-30T00:57:21;1.70;99.90
18454;DHT22;9356;52.202;20.950;2024-01-30T00:58:30;1.80;99.90
18454;DHT22;9356;52.202;20.950;2024-01-30T00:59:38;1.80;99.90
18454;DHT22;9356;52.202;20.950;2024-01-30T01:00:41;1.90;99.90
18454;DHT22;9356;52.202;20.950;2024-01-30T01:01:46;1.90;99.90
18454;DHT22;9356;52.202;20.950;2024-01-30T01:02:58;1.90;99.90
18454;DHT22;9356;52.202;20.950;2024-01-30T01:04:01;1.90;99.90
18454;DHT22;9356;52.202;20.950;2024-01-30T01:05:10;1.80;99.90
18454;DHT22;9356;52.202;20.950;2024-01-30T01:06:13;1.80;99.90
18454;DHT22;9356;52.202;20.950;2024-01-30T01:07:22;1.90;99.90
18454;DHT22;9356;52.202;20.950;2024-01-30T01:08:36;1.90;99.90
18454;DHT22;9356;52.202;20.950;2024-01-30T01:09:41;1.90;99.90
18454;DHT22;9356;52.202;20.950;2024-01-30T01:10:49;1.80;99.90
18454;DHT22;9356;52.202;20.950;2024-01-30T01:12:02;1.90;99.90
18454;DHT22;9356;52.202;20.950;2024-01-30T01:13:05;1.80;99.90
18454;DHT22;9356;52.202;20.950;2024-01-30T01:14:17;1.90;99.90
18454;DHT22;9356;52.202;20.950;2024-01-30T01:15:24;1.90;99.90
18454;DHT22;9356;52.202;20.950;2024-01-30T01:16:33;2.00;99.90
18454;DHT22;9356;52.202;20.950;2024-01-30T01:17:37;2.00;99.90
18454;DHT22;9356;52.202;20.950;2024-01-30T01:18:49;2.00;99.90
18454;DHT22;9356;52.202;20.950;2024-01-30T01:19:58;1.90;99.90
18454;DHT22;9356;52.202;20.950;2024-01-30T01:21:05;1.90;99.90
18454;DHT22;9356;52.202;20.950;2024-01-30T01:22:13;1.90;99.90
18454;DHT22;9356;52.202;20.950;2024-01-30T01:23:22;1.90;99.90
18454;DHT22;9356;52.202;20.950;2024-01-30T01:24:34;1.90;99.90
18454;DHT22;9356;52.202;20.950;2024-01-30T01:25:41;1.90;99.90
18454;DHT22;9356;52.202;20.950;2024-01-30T01:26:50;1.90;99.90
18454;DHT22;9356;52.202;20.950;2024-01-30T01:28:00;1.80;99.90
18454;DHT22;9356;52.202;20.950;2024-01-30T01:29:09;1.90;99.90
18454;DHT22;9356;52.202;20.950;2024-01-30T01:30:14;2.00;99.90
18454;DHT22;9356;52.202;20.950;2024-01-30T01:31:25;2.00;99.90
18454;DHT22;9356;52.202;20.950;2024-01-30T01:32:33;2.00;99.90
18454;DHT22;9356;52.202;20.950;2024-01-30T01:33:46;1.90;99.90
18454;DHT22;9356;52.202;20.950;2024-01-30T01:34:49;2.00;99.90
18454;DHT22;9356;52.202;20.950;2024-01-30T01:35:58;1.90;99.90
18454;DHT22;9356;52.202;20.950;2024-01-30T01:37:06;1.90;99.90
18454;DHT22;9356;52.202;20.950;2024-01-30T01:38:12;1.90;99.90
18454;DHT22;9356;52.202;20.950;2024-01-30T01:39:21;1.90;99.90
18454;DHT22;9356;52.202;20.950;2024-01-30T01:40:32;1.90;99.90
18454;DHT22;9356;52.202;20.950;2024-01-30T01:41:37;1.90;99.90
18454;DHT22;9356;52.202;20.950;2024-01-30T01:42:46;1.90;99.90
18454;DHT22;9356;52.202;20.950;2024-01-30T01:44:01;2.10;99.90
18454;DHT22;9356;52.202;20.950;2024-01-30T01:45:08;1.70;99.90
18454;DHT22;9356;52.202;20.950;2024-01-30T01:46:12;1.90;99.90
18454;DHT22;9356;52.202;20.950;2024-01-30T01:47:21;1.90;99.90
18454;DHT22;9356;52.202;20.950;2024-01-30T01:48:29;1.90;99.90
18454;DHT22;9356;52.202;20.950;2024-01-30T01:49:41;1.90;99.90
18454;DHT22;9356;52.202;20.950;2024-01-30T01:50:53;2.00;99.90
18454;DHT22;9356;52.202;20.950;2024-01-30T01:52:09;2.10;99.90
18454;DHT22;9356;52.202;20.950;2024-01-30T01:53:13;2.10;99.90
18454;DHT22;9356;52.202;20.950;2024-01-30T01:54:24;2.10;99.90
18454;DHT22;9356;52.202;20.950;2024-01-30T01:55:34;2.10;99.90
18454;DHT22;9356;52.202;20.950;2024-01-30T01:56:42;2.10;99.90
18454;DHT22;9356;52.202;20.950;2024-01-30T01:58:01;2.10;99.90
18454;DHT22;9356;52.202;20.950;2024-01-30T01:59:09;2.10;99.90
18454;DHT22;9356;52.202;20.950;2024-01-30T02:00:17;2.10;99.90
18454;DHT22;9356;52.202;20.950;2024-01-30T02:01:27;2.10;99.90
18454;DHT22;9356;52.202;20.950;2024-01-30T02:02:35;2.10;99.90
18454;DHT22;9356;52.202;20.950;2024-01-30T02:03:46;2.10;99.90
18454;DHT22;9356;52.202;20.950;2024-01-30T02:04:57;2.10;99.90
18454;DHT22;9356;52.202;20.950;2024-01-30T02:06:06;2.00;99.90
18454;DHT22;9356;52.202;20.950;2024-01-30T02:07:09;2.00;99.90
18454;DHT22;9356;52.202;20.950;2024-01-30T02:08:21;2.10;99.90
18454;DHT22;9356;52.202;20.950;2024-01-30T02:09:30;2.00;99.90
18454;DHT22;9356;52.202;20.950;2024-01-30T02:10:37;2.00;99.90
18454;DHT22;9356;52.202;20.950;2024-01-30T02:11:44;2.00;99.90
18454;DHT22;9356;52.202;20.950;2024-01-30T02:12:52;2.10;99.90
18454;DHT22;9356;52.202;20.950;2024-01-30T02:13:56;2.30;99.90
18454;DHT22;9356;52.202;20.950;2024-01-30T02:15:06;2.20;99.90
18454;DHT22;9356;52.202;20.950;2024-01-30T02:16:10;2.20;99.90
18454;DHT22;9356;52.202;20.950;2024-01-30T02:17:15;2.20;99.90
18454;DHT22;9356;52.202;20.950;2024-01-30T02:18:20;2.10;99.90
18454;DHT22;9356;52.202;20.950;2024-01-30T02:19:26;2.10;99.90
18454;DHT22;9356;52.202;20.950;2024-01-30T02:20:35;2.10;99.90
18454;DHT22;9356;52.202;20.950;2024-01-30T02:21:45;2.10;99.90
18454;DHT22;9356;52.202;20.950;2024-01-30T02:22:53;2.10;99.90
18454;DHT22;9356;52.202;20.950;2024-01-30T02:24:06;2.10;99.90
18454;DHT22;9356;52.202;20.950;2024-01-30T02:25:12;2.00;99.90
18454;DHT22;9356;52.202;20.950;2024-01-30T02:26:17;2.00;99.90
18454;DHT22;9356;52.202;20.950;2024-01-30T02:27:20;2.00;99.90
18454;DHT22;9356;52.202;20.950;2024-01-30T02:28:26;2.00;99.90
18454;DHT22;9356;52.202;20.950;2024-01-30T02:29:32;2.00;99.90
18454;DHT22;9356;52.202;20.950;2024-01-30T02:32:41;2.00;99.90
18454;DHT22;9356;52.202;20.950;2024-01-30T02:33:50;1.90;99.90
18454;DHT22;9356;52.202;20.950;2024-01-30T02:35:01;2.00;99.90
18454;DHT22;9356;52.202;20.950;2024-01-30T02:36:05;2.10;99.90
18454;DHT22;9356;52.202;20.950;2024-01-30T02:37:13;2.10;99.90
18454;DHT22;9356;52.202;20.950;2024-01-30T02:38:21;2.10;99.90
18454;DHT22;9356;52.202;20.950;2024-01-30T02:39:28;2.10;99.90
18454;DHT22;9356;52.202;20.950;2024-01-30T02:40:33;2.00;99.90
18454;DHT22;9356;52.202;20.950;2024-01-30T02:41:40;2.00;99.90
18454;DHT22;9356;52.202;20.950;2024-01-30T02:42:44;2.00;99.90
18454;DHT22;9356;52.202;20.950;2024-01-30T02:43:53;2.00;99.90
18454;DHT22;9356;52.202;20.950;2024-01-30T02:45:01;2.10;99.90
18454;DHT22;9356;52.202;20.950;2024-01-30T02:46:05;2.00;99.90
18454;DHT22;9356;52.202;20.950;2024-01-30T02:47:10;2.10;99.90
18454;DHT22;9356;52.202;20.950;2024-01-30T02:48:17;2.00;99.90
18454;DHT22;9356;52.202;20.950;2024-01-30T02:49:25;2.00;99.90
18454;DHT22;9356;52.202;20.950;2024-01-30T02:50:34;2.00;99.90
18454;DHT22;9356;52.202;20.950;2024-01-30T02:51:42;2.10;99.90
18454;DHT22;9356;52.202;20.950;2024-01-30T02:52:50;1.90;99.90
18454;DHT22;9356;52.202;20.950;2024-01-30T02:53:58;1.90;99.90
18454;DHT22;9356;52.202;20.950;2024-01-30T02:55:09;1.90;99.90
18454;DHT22;9356;52.202;20.950;2024-01-30T02:56:13;1.90;99.90
18454;DHT22;9356;52.202;20.950;2024-01-30T02:57:21;1.90;99.90
18454;DHT22;9356;52.202;20.950;2024-01-30T02:58:26;1.90;99.90
18454;DHT22;9356;52.202;20.950;2024-01-30T02:59:36;1.90;99.90
18454;DHT22;9356;52.202;20.950;2024-01-30T03:00:45;1.90;99.90
18454;DHT22;9356;52.202;20.950;2024-01-30T03:02:02;1.90;99.90
18454;DHT22;9356;52.202;20.950;2024-01-30T03:03:10;2.00;99.90
18454;DHT22;9356;52.202;20.950;2024-01-30T03:04:17;2.00;99.90
18454;DHT22;9356;52.202;20.950;2024-01-30T03:05:22;1.90;99.90
18454;DHT22;9356;52.202;20.950;2024-01-30T03:06:30;1.90;99.90
18454;DHT22;9356;52.202;20.950;2024-01-30T03:07:37;2.00;99.90
18454;DHT22;9356;52.202;20.950;2024-01-30T03:08:48;1.90;99.90
18454;DHT22;9356;52.202;20.950;2024-01-30T03:09:54;1.90;99.90
18454;DHT22;9356;52.202;20.950;2024-01-30T03:10:58;1.90;99.90
18454;DHT22;9356;52.202;20.950;2024-01-30T03:12:01;1.90;99.90
18454;DHT22;9356;52.202;20.950;2024-01-30T03:13:09;1.90;99.90
18454;DHT22;9356;52.202;20.950;2024-01-30T03:14:14;1.90;99.90
18454;DHT22;9356;52.202;20.950;2024-01-30T03:15:21;1.80;99.90
18454;DHT22;9356;52.202;20.950;2024-01-30T03:16:26;1.80;99.90
18454;DHT22;9356;52.202;20.950;2024-01-30T03:17:34;1.70;99.90
18454;DHT22;9356;52.202;20.950;2024-01-30T03:18:42;1.70;99.90
18454;DHT22;9356;52.202;20.950;2024-01-30T03:19:46;1.70;99.90
18454;DHT22;9356;52.202;20.950;2024-01-30T03:20:52;1.70;99.90
18454;DHT22;9356;52.202;20.950;2024-01-30T03:22:02;1.70;99.90
18454;DHT22;9356;52.202;20.950;2024-01-30T03:23:05;1.70;99.90
18454;DHT22;9356;52.202;20.950;2024-01-30T03:24:17;1.70;99.90
18454;DHT22;9356;52.202;20.950;2024-01-30T03:25:22;1.90;99.90
18454;DHT22;9356;52.202;20.950;2024-01-30T03:26:30;1.80;99.90
18454;DHT22;9356;52.202;20.950;2024-01-30T03:27:34;1.80;99.90
18454;DHT22;9356;52.202;20.950;2024-01-30T03:28:42;1.80;99.90
18454;DHT22;9356;52.202;20.950;2024-01-30T03:29:49;1.80;99.90
18454;DHT22;9356;52.202;20.950;2024-01-30T03:31:23;1.90;99.90
18454;DHT22;9356;52.202;20.950;2024-01-30T03:32:30;1.80;99.90
18454;DHT22;9356;52.202;20.950;2024-01-30T03:33:46;1.80;99.90
18454;DHT22;9356;52.202;20.950;2024-01-30T03:34:53;1.80;99.90
18454;DHT22;9356;52.202;20.950;2024-01-30T03:35:55;1.80;99.90
18454;DHT22;9356;52.202;20.950;2024-01-30T03:37:07;1.80;99.90
18454;DHT22;9356;52.202;20.950;2024-01-30T03:38:14;1.80;99.90
18454;DHT22;9356;52.202;20.950;2024-01-30T03:39:27;1.70;99.90
18454;DHT22;9356;52.202;20.950;2024-01-30T03:40:35;1.60;99.90
18454;DHT22;9356;52.202;20.950;2024-01-30T03:41:46;1.70;99.90
18454;DHT22;9356;52.202;20.950;2024-01-30T03:42:51;1.70;99.90
18454;DHT22;9356;52.202;20.950;2024-01-30T03:43:55;1.70;99.90
18454;DHT22;9356;52.202;20.950;2024-01-30T03:44:58;1.70;99.90
18454;DHT22;9356;52.202;20.950;2024-01-30T03:46:07;1.80;99.90
18454;DHT22;9356;52.202;20.950;2024-01-30T03:47:11;1.60;99.90
18454;DHT22;9356;52.202;20.950;2024-01-30T03:48:21;1.70;99.90
18454;DHT22;9356;52.202;20.950;2024-01-30T03:49:24;1.60;99.90
18454;DHT22;9356;52.202;20.950;2024-01-30T03:50:30;1.60;99.90
18454;DHT22;9356;52.202;20.950;2024-01-30T03:51:35;1.80;99.90
18454;DHT22;9356;52.202;20.950;2024-01-30T03:52:45;1.60;99.90
18454;DHT22;9356;52.202;20.950;2024-01-30T03:53:50;1.60;99.90
18454;DHT22;9356;52.202;20.950;2024-01-30T03:54:57;1.60;99.90
18454;DHT22;9356;52.202;20.950;2024-01-30T03:56:03;1.50;99.90
18454;DHT22;9356;52.202;20.950;2024-01-30T03:57:14;1.60;99.90
18454;DHT22;9356;52.202;20.950;2024-01-30T03:58:19;1.60;99.90
18454;DHT22;9356;52.202;20.950;2024-01-30T03:59:22;1.60;99.90
18454;DHT22;9356;52.202;20.950;2024-01-30T04:00:30;1.60;99.90
18454;DHT22;9356;52.202;20.950;2024-01-30T04:01:34;1.60;99.90
18454;DHT22;9356;52.202;20.950;2024-01-30T04:02:43;1.60;99.90
18454;DHT22;9356;52.202;20.950;2024-01-30T04:03:55;1.60;99.90
18454;DHT22;9356;52.202;20.950;2024-01-30T04:05:06;1.60;99.90
18454;DHT22;9356;52.202;20.950;2024-01-30T04:06:11;1.50;99.90
18454;DHT22;9356;52.202;20.950;2024-01-30T04:07:18;1.50;99.90
18454;DHT22;9356;52.202;20.950;2024-01-30T04:08:26;1.40;99.90
18454;DHT22;9356;52.202;20.950;2024-01-30T04:09:34;1.40;99.90
18454;DHT22;9356;52.202;20.950;2024-01-30T04:10:43;1.40;99.90
18454;DHT22;9356;52.202;20.950;2024-01-30T04:11:55;1.40;99.90
18454;DHT22;9356;52.202;20.950;2024-01-30T04:12:59;1.40;99.90
18454;DHT22;9356;52.202;20.950;2024-01-30T04:14:15;1.40;99.90
18454;DHT22;9356;52.202;20.950;2024-01-30T04:15:20;1.40;99.90
18454;DHT22;9356;52.202;20.950;2024-01-30T04:16:31;1.40;99.90
18454;DHT22;9356;52.202;20.950;2024-01-30T04:17:39;1.40;99.90
18454;DHT22;9356;52.202;20.950;2024-01-30T04:18:46;1.40;99.90
18454;DHT22;9356;52.202;20.950;2024-01-30T04:19:50;1.40;99.90
18454;DHT22;9356;52.202;20.950;2024-01-30T04:21:07;1.40;99.90
18454;DHT22;9356;52.202;20.950;2024-01-30T04:22:10;1.40;99.90
18454;DHT22;9356;52.202;20.950;2024-01-30T04:23:16;1.40;99.90
18454;DHT22;9356;52.202;20.950;2024-01-30T04:24:20;1.40;99.90
18454;DHT22;9356;52.202;20.950;2024-01-30T04:25:38;1.50;99.90
18454;DHT22;9356;52.202;20.950;2024-01-30T04:26:47;1.40;99.90
18454;DHT22;9356;52.202;20.950;2024-01-30T04:27:55;1.50;99.90
18454;DHT22;9356;52.202;20.950;2024-01-30T04:28:58;1.60;99.90
18454;DHT22;9356;52.202;20.950;2024-01-30T04:30:02;1.40;99.90
18454;DHT22;9356;52.202;20.950;2024-01-30T04:31:10;1.50;99.90
18454;DHT22;9356;52.202;20.950;2024-01-30T04:32:18;1.40;99.90
18454;DHT22;9356;52.202;20.950;2024-01-30T04:33:23;1.40;99.90
18454;DHT22;9356;52.202;20.950;2024-01-30T04:34:27;1.40;99.90
18454;DHT22;9356;52.202;20.950;2024-01-30T04:35:43;1.40;99.90
18454;DHT22;9356;52.202;20.950;2024-01-30T04:36:55;1.40;99.90
18454;DHT22;9356;52.202;20.950;2024-01-30T04:38:02;1.40;99.90
18454;DHT22;9356;52.202;20.950;2024-01-30T04:39:07;1.40;99.90
18454;DHT22;9356;52.202;20.950;2024-01-30T04:40:15;1.40;99.90
18454;DHT22;9356;52.202;20.950;2024-01-30T04:41:22;1.40;99.90
18454;DHT22;9356;52.202;20.950;2024-01-30T04:42:31;1.40;99.90
18454;DHT22;9356;52.202;20.950;2024-01-30T04:43:39;1.40;99.90
18454;DHT22;9356;52.202;20.950;2024-01-30T04:44:46;1.30;99.90
18454;DHT22;9356;52.202;20.950;2024-01-30T04:45:51;1.40;99.90
18454;DHT22;9356;52.202;20.950;2024-01-30T04:47:03;1.30;99.90
18454;DHT22;9356;52.202;20.950;2024-01-30T04:48:07;1.60;99.90
18454;DHT22;9356;52.202;20.950;2024-01-30T04:49:15;1.20;99.90
18454;DHT22;9356;52.202;20.950;2024-01-30T04:50:23;1.30;99.90
18454;DHT22;9356;52.202;20.950;2024-01-30T04:51:35;1.30;99.90
18454;DHT22;9356;52.202;20.950;2024-01-30T04:52:39;1.20;99.90
18454;DHT22;9356;52.202;20.950;2024-01-30T04:53:47;1.20;99.90
18454;DHT22;9356;52.202;20.950;2024-01-30T04:54:55;1.30;99.90
18454;DHT22;9356;52.202;20.950;2024-01-30T04:56:07;1.20;99.90
18454;DHT22;9356;52.202;20.950;2024-01-30T04:57:14;1.20;99.90
18454;DHT22;9356;52.202;20.950;2024-01-30T04:58:28;1.20;99.90
18454;DHT22;9356;52.202;20.950;2024-01-30T04:59:34;1.20;99.90
18454;DHT22;9356;52.202;20.950;2024-01-30T05:00:39;1.20;99.90
18454;DHT22;9356;52.202;20.950;2024-01-30T05:01:47;1.20;99.90
18454;DHT22;9356;52.202;20.950;2024-01-30T05:03:03;1.20;99.90
18454;DHT22;9356;52.202;20.950;2024-01-30T05:04:09;1.20;99.90
18454;DHT22;9356;52.202;20.950;2024-01-30T05:05:18;1.20;99.90
18454;DHT22;9356;52.202;20.950;2024-01-30T05:06:27;1.30;99.90
18454;DHT22;9356;52.202;20.950;2024-01-30T05:07:35;1.30;99.90
18454;DHT22;9356;52.202;20.950;2024-01-30T05:08:42;1.20;99.90
18454;DHT22;9356;52.202;20.950;2024-01-30T05:09:51;1.30;99.90
18454;DHT22;9356;52.202;20.950;2024-01-30T05:11:05;1.30;99.90
18454;DHT22;9356;52.202;20.950;2024-01-30T05:12:11;1.20;99.90
18454;DHT22;9356;52.202;20.950;2024-01-30T05:13:16;1.30;99.90
18454;DHT22;9356;52.202;20.950;2024-01-30T05:14:24;1.30;99.90
18454;DHT22;9356;52.202;20.950;2024-01-30T05:15:31;1.20;99.90
18454;DHT22;9356;52.202;20.950;2024-01-30T05:16:38;1.40;99.90
18454;DHT22;9356;52.202;20.950;2024-01-30T05:17:43;1.20;99.90
18454;DHT22;9356;52.202;20.950;2024-01-30T05:18:55;1.20;99.90
18454;DHT22;9356;52.202;20.950;2024-01-30T05:20:11;1.30;99.90
18454;DHT22;9356;52.202;20.950;2024-01-30T05:21:18;1.00;99.90
18454;DHT22;9356;52.202;20.950;2024-01-30T05:22:23;1.20;99.90
18454;DHT22;9356;52.202;20.950;2024-01-30T05:23:35;1.20;99.90
18454;DHT22;9356;52.202;20.950;2024-01-30T05:24:43;1.20;99.90
18454;DHT22;9356;52.202;20.950;2024-01-30T05:25:51;1.80;99.90
18454;DHT22;9356;52.202;20.950;2024-01-30T05:26:59;1.20;99.90
18454;DHT22;9356;52.202;20.950;2024-01-30T05:28:07;1.30;99.90
18454;DHT22;9356;52.202;20.950;2024-01-30T05:29:15;1.30;99.90
18454;DHT22;9356;52.202;20.950;2024-01-30T05:30:24;1.30;99.90
18454;DHT22;9356;52.202;20.950;2024-01-30T05:31:32;1.30;99.90
18454;DHT22;9356;52.202;20.950;2024-01-30T05:32:39;1.30;99.90
18454;DHT22;9356;52.202;20.950;2024-01-30T05:33:47;1.30;99.90
18454;DHT22;9356;52.202;20.950;2024-01-30T05:34:52;1.30;99.90
18454;DHT22;9356;52.202;20.950;2024-01-30T05:35:55;1.30;99.90
18454;DHT22;9356;52.202;20.950;2024-01-30T05:37:04;1.30;99.90
18454;DHT22;9356;52.202;20.950;2024-01-30T05:38:08;1.30;99.90
18454;DHT22;9356;52.202;20.950;2024-01-30T05:39:11;1.30;99.90
18454;DHT22;9356;52.202;20.950;2024-01-30T05:40:18;1.40;99.90
18454;DHT22;9356;52.202;20.950;2024-01-30T05:41:22;1.30;99.90
18454;DHT22;9356;52.202;20.950;2024-01-30T05:42:31;1.30;99.90
18454;DHT22;9356;52.202;20.950;2024-01-30T05:43:35;1.40;99.90
18454;DHT22;9356;52.202;20.950;2024-01-30T05:44:42;1.40;99.90
18454;DHT22;9356;52.202;20.950;2024-01-30T05:45:47;1.40;99.90
18454;DHT22;9356;52.202;20.950;2024-01-30T05:46:59;1.30;99.90
18454;DHT22;9356;52.202;20.950;2024-01-30T05:48:07;1.40;99.90
18454;DHT22;9356;52.202;20.950;2024-01-30T05:49:15;1.40;99.90
18454;DHT22;9356;52.202;20.950;2024-01-30T05:50:23;1.40;99.90
18454;DHT22;9356;52.202;20.950;2024-01-30T05:51:30;1.30;99.90
18454;DHT22;9356;52.202;20.950;2024-01-30T05:52:34;1.40;99.90
18454;DHT22;9356;52.202;20.950;2024-01-30T05:53:40;1.50;99.90
18454;DHT22;9356;52.202;20.950;2024-01-30T05:54:42;1.40;99.90
18454;DHT22;9356;52.202;20.950;2024-01-30T05:55:47;1.40;99.90
18454;DHT22;9356;52.202;20.950;2024-01-30T05:56:55;1.40;99.90
18454;DHT22;9356;52.202;20.950;2024-01-30T05:58:04;1.50;99.90
18454;DHT22;9356;52.202;20.950;2024-01-30T05:59:11;1.60;99.90
18454;DHT22;9356;52.202;20.950;2024-01-30T06:00:19;1.50;99.90
18454;DHT22;9356;52.202;20.950;2024-01-30T06:01:26;1.40;99.90
18454;DHT22;9356;52.202;20.950;2024-01-30T06:02:31;1.40;99.90
18454;DHT22;9356;52.202;20.950;2024-01-30T06:03:47;1.40;99.90
18454;DHT22;9356;52.202;20.950;2024-01-30T06:04:55;1.40;99.90
18454;DHT22;9356;52.202;20.950;2024-01-30T06:06:02;1.40;99.90
18454;DHT22;9356;52.202;20.950;2024-01-30T06:07:07;1.40;99.90
18454;DHT22;9356;52.202;20.950;2024-01-30T06:08:14;1.60;99.90
18454;DHT22;9356;52.202;20.950;2024-01-30T06:09:20;1.60;99.90
18454;DHT22;9356;52.202;20.950;2024-01-30T06:10:28;1.50;99.90
18454;DHT22;9356;52.202;20.950;2024-01-30T06:11:36;1.50;99.90
18454;DHT22;9356;52.202;20.950;2024-01-30T06:12:47;1.50;99.90
18454;DHT22;9356;52.202;20.950;2024-01-30T06:13:56;1.40;99.90
18454;DHT22;9356;52.202;20.950;2024-01-30T06:15:05;1.50;99.90
18454;DHT22;9356;52.202;20.950;2024-01-30T06:16:10;1.50;99.90
18454;DHT22;9356;52.202;20.950;2024-01-30T06:17:20;1.50;99.90
18454;DHT22;9356;52.202;20.950;2024-01-30T06:18:32;1.50;99.90
18454;DHT22;9356;52.202;20.950;2024-01-30T06:19:35;1.40;99.90
18454;DHT22;9356;52.202;20.950;2024-01-30T06:20:47;1.40;99.90
18454;DHT22;9356;52.202;20.950;2024-01-30T06:21:54;1.40;99.90
18454;DHT22;9356;52.202;20.950;2024-01-30T06:22:59;1.40;99.90
18454;DHT22;9356;52.202;20.950;2024-01-30T06:24:06;1.40;99.90
18454;DHT22;9356;52.202;20.950;2024-01-30T06:25:15;1.40;99.90
18454;DHT22;9356;52.202;20.950;2024-01-30T06:26:19;1.40;99.90
18454;DHT22;9356;52.202;20.950;2024-01-30T06:27:27;1.50;99.90
18454;DHT22;9356;52.202;20.950;2024-01-30T06:28:35;1.50;99.90
18454;DHT22;9356;52.202;20.950;2024-01-30T06:29:47;1.50;99.90
18454;DHT22;9356;52.202;20.950;2024-01-30T06:30:52;1.50;99.90
18454;DHT22;9356;52.202;20.950;2024-01-30T06:32:04;0.90;99.90
18454;DHT22;9356;52.202;20.950;2024-01-30T06:33:08;1.50;99.90
18454;DHT22;9356;52.202;20.950;2024-01-30T06:34:16;1.50;99.90
18454;DHT22;9356;52.202;20.950;2024-01-30T06:35:23;1.50;99.90
18454;DHT22;9356;52.202;20.950;2024-01-30T06:36:35;1.50;99.90
18454;DHT22;9356;52.202;20.950;2024-01-30T06:37:43;1.50;99.90
18454;DHT22;9356;52.202;20.950;2024-01-30T06:38:51;1.50;99.90
18454;DHT22;9356;52.202;20.950;2024-01-30T06:39:56;1.60;99.90
18454;DHT22;9356;52.202;20.950;2024-01-30T06:41:04;1.70;99.90
18454;DHT22;9356;52.202;20.950;2024-01-30T06:42:07;1.60;99.90
18454;DHT22;9356;52.202;20.950;2024-01-30T06:43:16;1.60;99.90
18454;DHT22;9356;52.202;20.950;2024-01-30T06:44:22;1.60;99.90
18454;DHT22;9356;52.202;20.950;2024-01-30T06:45:37;1.80;99.90
18454;DHT22;9356;52.202;20.950;2024-01-30T06:46:40;1.60;99.90
18454;DHT22;9356;52.202;20.950;2024-01-30T06:47:48;1.60;99.90
18454;DHT22;9356;52.202;20.950;2024-01-30T06:49:00;1.60;99.90
18454;DHT22;9356;52.202;20.950;2024-01-30T06:50:08;1.60;99.90
18454;DHT22;9356;52.202;20.950;2024-01-30T06:51:11;1.60;99.90
18454;DHT22;9356;52.202;20.950;2024-01-30T06:52:23;1.60;99.90
18454;DHT22;9356;52.202;20.950;2024-01-30T06:53:28;1.70;99.90
18454;DHT22;9356;52.202;20.950;2024-01-30T06:54:36;1.80;99.90
18454;DHT22;9356;52.202;20.950;2024-01-30T06:55:47;1.90;99.90
18454;DHT22;9356;52.202;20.950;2024-01-30T06:56:54;2.00;99.90
18454;DHT22;9356;52.202;20.950;2024-01-30T06:57:56;2.10;99.90
18454;DHT22;9356;52.202;20.950;2024-01-30T06:59:00;2.20;99.90
18454;DHT22;9356;52.202;20.950;2024-01-30T07:00:03;2.30;99.90
18454;DHT22;9356;52.202;20.950;2024-01-30T07:01:11;2.40;99.90
18454;DHT22;9356;52.202;20.950;2024-01-30T07:02:20;2.50;99.90
18454;DHT22;9356;52.202;20.950;2024-01-30T07:03:24;2.60;99.90
18454;DHT22;9356;52.202;20.950;2024-01-30T07:04:31;2.60;99.90
18454;DHT22;9356;52.202;20.950;2024-01-30T07:05:51;2.60;99.90
18454;DHT22;9356;52.202;20.950;2024-01-30T07:06:58;2.60;99.90
18454;DHT22;9356;52.202;20.950;2024-01-30T07:08:04;2.70;99.90
18454;DHT22;9356;52.202;20.950;2024-01-30T07:09:08;2.80;99.90
18454;DHT22;9356;52.202;20.950;2024-01-30T07:10:16;2.80;99.90
18454;DHT22;9356;52.202;20.950;2024-01-30T07:11:24;2.80;99.90
18454;DHT22;9356;52.202;20.950;2024-01-30T07:12:36;2.70;99.90
18454;DHT22;9356;52.202;20.950;2024-01-30T07:13:40;2.90;99.90
18454;DHT22;9356;52.202;20.950;2024-01-30T07:14:47;2.90;99.90
18454;DHT22;9356;52.202;20.950;2024-01-30T07:15:54;2.90;99.90
18454;DHT22;9356;52.202;20.950;2024-01-30T07:17:04;3.00;99.90